Arbyrd, MO (63821)

1:04 PM CDT on July 23, 2014 (GMT -0500)
KC0UFP WX (KMOKENNE4) Elev 262 ft | 36.21 °N, 90.07 °W | Change Station

Current weather conditions updated 11 minutes ago

Mostly Cloudy
Mostly Cloudy
87.4 °F
Feels Like 97 °F
N
5.3
Wind Variable Wind from SSW

Today is forecast to be nearly the same temperature as yesterday. A few thunderstorms possible.

Today
High -- | Low -- °F
--% Chance of Precip.
Yesterday
High -- | Low -- °F
Precip. -- in
6:01 AM 8:13 PM
Waning Crescent, 9% visible
Pressure 30.02 in
Visibility 10.0 miles
Clouds Few 6000 ft
Scattered Clouds 15000 ft
Heat Index 97 °F
Dew Point 75 °F
Humidity 66%
Rainfall 0.00 in
Snow Depth Not available.
UV 9 out of 12
Pollen 4.90 out of 12
Air Quality Not available.
Flu Activity Not available.
METAR KBYH 231753Z 20009KT 10SM FEW060 SCT150 32/23 A3002

More Conditions Fewer Conditions

Pressure 30.02 in
Visibility 10.0 miles
Clouds Few 6000 ft
Scattered Clouds 15000 ft
Heat Index 97 °F
Dew Point 75 °F
Humidity 66%
Rainfall 0.00 in
Snow Depth Not available.
UV 9 out of 12
Pollen 4.90 out of 12
Air Quality Not available.
Flu Activity Not available.
METAR KBYH 231753Z 20009KT 10SM FEW060 SCT150 32/23 A3002

More Conditions Fewer Conditions

10-Day Weather Forecast

Almanac

Astronomy

Jul. 23, 2014 Rise Set
Actual Time 6:01 AM CDT 8:13 PM CDT
Civil Twilight 5:32 AM CDT 8:41 PM CDT
Nautical Twilight 4:56 AM CDT 9:17 PM CDT
Astronomical Twilight 4:18 AM CDT 9:55 PM CDT
Moon 3:19 AM CDT 5:42 PM CDT
Length of Visible Light 15h 09m
Length of Day
14h 12m
Tomorrow will be 1m 28s shorter.
Waning Crescent, 9% of the Moon is Illuminated
Today
Waning Crescent
Jul 26
New
Aug 3
First Quarter
Aug 10
Full
Aug 17
Last Quarter

Today's Extremes

State Highs State Lows

Community

WunderPhotos

Upload Photos

1,736,692 photos uploaded!

Nearby

Snow Depth

Station Depth Elevation
No new snow has been reported.

Earthquake Activity

City Distance Mag. Time & Date
No recent earthquake activity has been reported nearby.
Minimum magnitude displayed is 2.5.

Coastal Water Temperatures

Place Temperature
No Stations Reporting

Nearby Weather Stations

Station Location Temp. Heat Index Dew Point Humidity Wind Precip. Elev Updated Type
KC0UFP WX, Kennett, MO 87.4 °F 97 °F 75 °F 66% SSW  at  5.3 mph - / hr 262 ft 12:53 PM CDT Normal
Kennett E911, Kennett, MO 88.3 °F 98 °F 74 °F 64% SW  at  3.0 mph 0.00 in / hr 262 ft 1:04 PM CDT Rapid Fire
William White Subdivision, Paragould, AR 89.6 °F 99 °F 74 °F 61% ESE  at  2.0 mph 0.00 in / hr 331 ft 1:04 PM CDT Rapid Fire
Peach Orchard, Gideon, MO 85.7 °F 94 °F 75 °F 70% ESE  at  7.0 mph 0.00 in / hr 263 ft 1:04 PM CDT Rapid Fire

Show More Stations Show Fewer Stations